Plan B — ZGCC2 — position and weather

sailwx.info

Track history (hours):
 
Tides and Currents Weather Stations Pressure Air Temp Water Temp Dewpoint Dewpoint Depression Visibility Wind Speed Wind Dir Waves Ship Positions

Plan B

Last reported at 2015-Aug-25 13:28 UTC. Time now 2015-Aug-28 02:20 UTC.
Position N 37°09' W 001°09'.

Length 73 m; draft 3.6 m.

Type: Pleasure craft. MMSI: 319618000.

Date/timePositionNaut miles runAvg speedWind from/ knotsBaromVisibWave heightAir tempDewpointWater temp
2015-Aug-25 13:28N 37°09' W 001°09'1112.2
2015-Aug-25 12:33N 37°17' W 000°59'1212.1
2015-Aug-25 11:33N 37°25' W 000°47'1212.1
2015-Aug-25 10:33N 37°33' W 000°36'1211.7
2015-Aug-25 09:33N 37°41' W 000°26'1211.7
2015-Aug-25 08:32N 37°49' W 000°14'1411.8
2015-Aug-25 07:20N 37°58' W 000°00'3711.8
2015-Aug-25 04:14N 38°20' E 000°37'812.0
2015-Aug-25 03:33N 38°25' E 000°45'1212.0
2015-Aug-25 02:33N 38°32' E 000°57'1211.9
2015-Aug-25 01:33N 38°39' E 001°09'1211.7
2015-Aug-25 00:32N 38°47' E 001°21'8 8.0
2015-Aug-24 23:31N 38°54' E 001°26'0 0.0
2015-Aug-24 20:29N 38°54' E 001°26'3 0.5
2015-Aug-24 15:33N 38°51' E 001°27'6 5.1
2015-Aug-24 14:23N 38°45' E 001°27'0 0.0
2015-Aug-24 13:29N 38°45' E 001°27'0 0.0
2015-Aug-24 12:29N 38°45' E 001°27'0 0.0
2015-Aug-24 10:29N 38°45' E 001°27'0 0.0
2015-Aug-24 07:29N 38°45' E 001°27'0 0.0
2015-Aug-24 06:29N 38°45' E 001°27'0 0.0
2015-Aug-24 05:29N 38°45' E 001°27'0 0.0
2015-Aug-24 04:23N 38°45' E 001°27'0 0.0
2015-Aug-24 03:33N 38°45' E 001°27'8 7.8
2015-Aug-24 02:34N 38°53' E 001°27'3 0.4
2015-Aug-23 18:33N 38°50' E 001°27'5 4.8
2015-Aug-23 17:34N 38°45' E 001°27'0 0.1
2015-Aug-23 16:33N 38°45' E 001°27'9 2.0
2015-Aug-23 12:23N 38°54' E 001°26'0 0.0
2015-Aug-23 11:28N 38°54' E 001°26'1 1.2
2015-Aug-23 10:34N 38°53' E 001°27'5 0.7
2015-Aug-23 02:32N 38°49' E 001°22'8 8.6
2015-Aug-23 01:33N 38°53' E 001°32'9 9.4
2015-Aug-23 00:33N 38°59' E 001°41'9 9.2
2015-Aug-22 23:34N 39°04' E 001°51'10 9.6
2015-Aug-22 22:33N 39°10' E 002°01'10 9.7
2015-Aug-22 21:33N 39°16' E 002°11'10 9.8
2015-Aug-22 20:33N 39°21' E 002°22'10 9.6
2015-Aug-22 19:33N 39°27' E 002°32'5 5.2
2015-Aug-22 18:32N 39°32' E 002°34'0 0.0
2015-Aug-22 17:29N 39°32' E 002°34'0 0.0
2015-Aug-22 16:29N 39°32' E 002°34'0 0.0
2015-Aug-22 15:32N 39°32' E 002°34'0 0.0
2015-Aug-22 14:29N 39°32' E 002°34'0 0.0
2015-Aug-22 13:32N 39°32' E 002°34'0 0.0
2015-Aug-22 12:20N 39°32' E 002°34'0 0.0
2015-Aug-22 11:29N 39°32' E 002°34'0 0.0
2015-Aug-22 10:29N 39°32' E 002°34'0 0.0
2015-Aug-22 09:29N 39°32' E 002°34'0 0.0
2015-Aug-22 08:32N 39°31' E 002°34'0 0.0
2015-Aug-22 07:29N 39°32' E 002°34'0 0.0
2015-Aug-22 06:32N 39°32' E 002°34'0 0.0
2015-Aug-22 05:32N 39°32' E 002°34'0 0.0
2015-Aug-22 04:32N 39°31' E 002°34'0 0.0
2015-Aug-22 03:29N 39°31' E 002°34'0 0.0
2015-Aug-22 02:32N 39°31' E 002°34'0 0.0
2015-Aug-22 01:29N 39°32' E 002°34'0 0.0
2015-Aug-22 00:32N 39°32' E 002°34'0 0.0
2015-Aug-21 23:29N 39°32' E 002°34'0 0.0
2015-Aug-21 22:32N 39°32' E 002°34'0 0.0
2015-Aug-21 21:29N 39°32' E 002°34'0 0.0
2015-Aug-21 20:32N 39°32' E 002°34'0 0.0
2015-Aug-21 19:30N 39°32' E 002°34'1111.1
2015-Aug-21 18:33N 39°24' E 002°43'1111.4
2015-Aug-21 17:33N 39°20' E 002°57'1 1.1
2015-Aug-21 16:33N 39°20' E 002°59'0 0.0
2015-Aug-21 15:33N 39°20' E 002°59'2 2.2
2015-Aug-21 14:33N 39°18' E 002°59'8 8.3
2015-Aug-21 13:33N 39°18' E 003°10'1010.0
2015-Aug-21 12:33N 39°26' E 003°18'7 0.6
2015-Aug-21 01:29N 39°32' E 003°22'21 9.5
2015-Aug-20 23:14N 39°49' E 003°40'7 9.8
2015-Aug-20 22:33N 39°54' E 003°44'6 3.2
2015-Aug-20 20:33N 39°60' E 003°49'5 0.6
2015-Aug-20 12:24N 39°55' E 003°49'3 0.7
2015-Aug-20 07:16N 39°55' E 003°54'  
2015-Aug-17 03:27N 39°00' E 009°27'1112.4
2015-Aug-17 02:33N 38°58' E 009°13'1212.4
2015-Aug-17 01:33N 38°56' E 008°57'0 0.1
2015-Aug-17 00:33N 38°56' E 008°57'0 0.0
2015-Aug-16 23:33N 38°56' E 008°57'0 0.0
2015-Aug-16 22:33N 38°56' E 008°57'0 0.0
2015-Aug-16 21:30N 38°56' E 008°57'0 0.0
2015-Aug-16 20:33N 38°56' E 008°57'0 0.0
2015-Aug-16 19:30N 38°56' E 008°57'0 0.0
2015-Aug-16 18:30N 38°56' E 008°57'0 0.0
2015-Aug-16 17:33N 38°56' E 008°57'0 0.0
2015-Aug-16 16:33N 38°56' E 008°57'0 0.0
2015-Aug-16 15:33N 38°56' E 008°57'0 0.0
2015-Aug-16 14:33N 38°56' E 008°57'0 0.0
2015-Aug-16 13:33N 38°56' E 008°57'0 0.0
2015-Aug-16 12:33N 38°56' E 008°57'0 0.0
2015-Aug-16 11:33N 38°56' E 008°57'0 0.0
2015-Aug-16 10:33N 38°56' E 008°57'0 0.0
2015-Aug-16 09:33N 38°56' E 008°57'0 0.0
2015-Aug-16 08:33N 38°56' E 008°57'0 0.0
2015-Aug-16 07:33N 38°56' E 008°57'0 0.0
2015-Aug-16 06:33N 38°56' E 008°57'0 0.0
2015-Aug-16 05:33N 38°56' E 008°57'0 0.0
2015-Aug-16 04:33N 38°56' E 008°57'0 0.0
2015-Aug-16 03:33N 38°56' E 008°57'0 0.0
2015-Aug-16 02:33N 38°56' E 008°57'0 0.0
2015-Aug-16 01:33N 38°56' E 008°57'0 0.0
2015-Aug-16 00:33N 38°56' E 008°57'0 0.1
2015-Aug-15 23:33N 38°56' E 008°57'0 0.0
2015-Aug-15 22:33N 38°56' E 008°57'0 0.0
2015-Aug-15 21:33N 38°56' E 008°57'0 0.0
2015-Aug-15 20:33N 38°56' E 008°57'0 0.0
2015-Aug-15 19:33N 38°56' E 008°57'0 0.0
2015-Aug-15 18:33N 38°56' E 008°57'0 0.0
2015-Aug-15 17:33N 38°56' E 008°57'0 0.0
2015-Aug-15 16:27N 38°56' E 008°57'0 0.1
2015-Aug-15 15:33N 38°56' E 008°57'0 0.1
2015-Aug-15 14:33N 38°56' E 008°57'0 0.1
2015-Aug-15 13:33N 38°56' E 008°57'  
Track history (hours):
 
Tides and Currents Weather Stations Pressure Air Temp Water Temp Dewpoint Dewpoint Depression Visibility Wind Speed Wind Dir Waves Ship Positions

Plan B

Last reported at 2015-Aug-25 13:28 UTC. Time now 2015-Aug-28 02:20 UTC.
Position N 37°09' W 001°09'.

Length 73 m; draft 3.6 m.

Type: Pleasure craft. MMSI: 319618000.

Date/timePositionNaut miles runAvg speedWind from/ knotsBaromVisibWave heightAir tempDewpointWater temp
2015-Aug-25 13:28N 37°09' W 001°09'1112.2
2015-Aug-25 12:33N 37°17' W 000°59'1212.1
2015-Aug-25 11:33N 37°25' W 000°47'1212.1
2015-Aug-25 10:33N 37°33' W 000°36'1211.7
2015-Aug-25 09:33N 37°41' W 000°26'1211.7
2015-Aug-25 08:32N 37°49' W 000°14'1411.8
2015-Aug-25 07:20N 37°58' W 000°00'3711.8
2015-Aug-25 04:14N 38°20' E 000°37'812.0
2015-Aug-25 03:33N 38°25' E 000°45'1212.0
2015-Aug-25 02:33N 38°32' E 000°57'1211.9
2015-Aug-25 01:33N 38°39' E 001°09'1211.7
2015-Aug-25 00:32N 38°47' E 001°21'8 8.0
2015-Aug-24 23:31N 38°54' E 001°26'0 0.0
2015-Aug-24 20:29N 38°54' E 001°26'3 0.5
2015-Aug-24 15:33N 38°51' E 001°27'6 5.1
2015-Aug-24 14:23N 38°45' E 001°27'0 0.0
2015-Aug-24 13:29N 38°45' E 001°27'0 0.0
2015-Aug-24 12:29N 38°45' E 001°27'0 0.0
2015-Aug-24 10:29N 38°45' E 001°27'0 0.0
2015-Aug-24 07:29N 38°45' E 001°27'0 0.0
2015-Aug-24 06:29N 38°45' E 001°27'0 0.0
2015-Aug-24 05:29N 38°45' E 001°27'0 0.0
2015-Aug-24 04:23N 38°45' E 001°27'0 0.0
2015-Aug-24 03:33N 38°45' E 001°27'8 7.8
2015-Aug-24 02:34N 38°53' E 001°27'3 0.4
2015-Aug-23 18:33N 38°50' E 001°27'5 4.8
2015-Aug-23 17:34N 38°45' E 001°27'0 0.1
2015-Aug-23 16:33N 38°45' E 001°27'9 2.0
2015-Aug-23 12:23N 38°54' E 001°26'0 0.0
2015-Aug-23 11:28N 38°54' E 001°26'1 1.2
2015-Aug-23 10:34N 38°53' E 001°27'5 0.7
2015-Aug-23 02:32N 38°49' E 001°22'8 8.6
2015-Aug-23 01:33N 38°53' E 001°32'9 9.4
2015-Aug-23 00:33N 38°59' E 001°41'9 9.2
2015-Aug-22 23:34N 39°04' E 001°51'10 9.6
2015-Aug-22 22:33N 39°10' E 002°01'10 9.7
2015-Aug-22 21:33N 39°16' E 002°11'10 9.8
2015-Aug-22 20:33N 39°21' E 002°22'10 9.6
2015-Aug-22 19:33N 39°27' E 002°32'5 5.2
2015-Aug-22 18:32N 39°32' E 002°34'0 0.0
2015-Aug-22 17:29N 39°32' E 002°34'0 0.0
2015-Aug-22 16:29N 39°32' E 002°34'0 0.0
2015-Aug-22 15:32N 39°32' E 002°34'0 0.0
2015-Aug-22 14:29N 39°32' E 002°34'0 0.0
2015-Aug-22 13:32N 39°32' E 002°34'0 0.0
2015-Aug-22 12:20N 39°32' E 002°34'0 0.0
2015-Aug-22 11:29N 39°32' E 002°34'0 0.0
2015-Aug-22 10:29N 39°32' E 002°34'0 0.0
2015-Aug-22 09:29N 39°32' E 002°34'0 0.0
2015-Aug-22 08:32N 39°31' E 002°34'0 0.0
2015-Aug-22 07:29N 39°32' E 002°34'0 0.0
2015-Aug-22 06:32N 39°32' E 002°34'0 0.0
2015-Aug-22 05:32N 39°32' E 002°34'0 0.0
2015-Aug-22 04:32N 39°31' E 002°34'0 0.0
2015-Aug-22 03:29N 39°31' E 002°34'0 0.0
2015-Aug-22 02:32N 39°31' E 002°34'0 0.0
2015-Aug-22 01:29N 39°32' E 002°34'0 0.0
2015-Aug-22 00:32N 39°32' E 002°34'0 0.0
2015-Aug-21 23:29N 39°32' E 002°34'0 0.0
2015-Aug-21 22:32N 39°32' E 002°34'0 0.0
2015-Aug-21 21:29N 39°32' E 002°34'0 0.0
2015-Aug-21 20:32N 39°32' E 002°34'0 0.0
2015-Aug-21 19:30N 39°32' E 002°34'1111.1
2015-Aug-21 18:33N 39°24' E 002°43'1111.4
2015-Aug-21 17:33N 39°20' E 002°57'1 1.1
2015-Aug-21 16:33N 39°20' E 002°59'0 0.0
2015-Aug-21 15:33N 39°20' E 002°59'2 2.2
2015-Aug-21 14:33N 39°18' E 002°59'8 8.3
2015-Aug-21 13:33N 39°18' E 003°10'1010.0
2015-Aug-21 12:33N 39°26' E 003°18'7 0.6
2015-Aug-21 01:29N 39°32' E 003°22'21 9.5
2015-Aug-20 23:14N 39°49' E 003°40'7 9.8
2015-Aug-20 22:33N 39°54' E 003°44'6 3.2
2015-Aug-20 20:33N 39°60' E 003°49'5 0.6
2015-Aug-20 12:24N 39°55' E 003°49'3 0.7
2015-Aug-20 07:16N 39°55' E 003°54'  
2015-Aug-17 03:27N 39°00' E 009°27'1112.4
2015-Aug-17 02:33N 38°58' E 009°13'1212.4
2015-Aug-17 01:33N 38°56' E 008°57'0 0.1
2015-Aug-17 00:33N 38°56' E 008°57'0 0.0
2015-Aug-16 23:33N 38°56' E 008°57'0 0.0
2015-Aug-16 22:33N 38°56' E 008°57'0 0.0
2015-Aug-16 21:30N 38°56' E 008°57'0 0.0
2015-Aug-16 20:33N 38°56' E 008°57'0 0.0
2015-Aug-16 19:30N 38°56' E 008°57'0 0.0
2015-Aug-16 18:30N 38°56' E 008°57'0 0.0
2015-Aug-16 17:33N 38°56' E 008°57'0 0.0
2015-Aug-16 16:33N 38°56' E 008°57'0 0.0
2015-Aug-16 15:33N 38°56' E 008°57'0 0.0
2015-Aug-16 14:33N 38°56' E 008°57'0 0.0
2015-Aug-16 13:33N 38°56' E 008°57'0 0.0
2015-Aug-16 12:33N 38°56' E 008°57'0 0.0
2015-Aug-16 11:33N 38°56' E 008°57'0 0.0
2015-Aug-16 10:33N 38°56' E 008°57'0 0.0
2015-Aug-16 09:33N 38°56' E 008°57'0 0.0
2015-Aug-16 08:33N 38°56' E 008°57'0 0.0
2015-Aug-16 07:33N 38°56' E 008°57'0 0.0
2015-Aug-16 06:33N 38°56' E 008°57'0 0.0
2015-Aug-16 05:33N 38°56' E 008°57'0 0.0
2015-Aug-16 04:33N 38°56' E 008°57'0 0.0
2015-Aug-16 03:33N 38°56' E 008°57'0 0.0
2015-Aug-16 02:33N 38°56' E 008°57'0 0.0
2015-Aug-16 01:33N 38°56' E 008°57'0 0.0
2015-Aug-16 00:33N 38°56' E 008°57'0 0.1
2015-Aug-15 23:33N 38°56' E 008°57'0 0.0
2015-Aug-15 22:33N 38°56' E 008°57'0 0.0
2015-Aug-15 21:33N 38°56' E 008°57'0 0.0
2015-Aug-15 20:33N 38°56' E 008°57'0 0.0
2015-Aug-15 19:33N 38°56' E 008°57'0 0.0
2015-Aug-15 18:33N 38°56' E 008°57'0 0.0
2015-Aug-15 17:33N 38°56' E 008°57'0 0.0
2015-Aug-15 16:27N 38°56' E 008°57'0 0.1
2015-Aug-15 15:33N 38°56' E 008°57'0 0.1
2015-Aug-15 14:33N 38°56' E 008°57'0 0.1
2015-Aug-15 13:33N 38°56' E 008°57'  

Dump ship's entire track history